Time;durP1;ratioP1;P1;durP2;ratioP2;P2;SDS_P1;SDS_P2;PMS_P1;PMS_P2;Temp;Humidity;BMP_temperature;BMP_pressure;BME280_temperature;BME280_humidity;BME280_pressure;Samples;Min_cycle;Max_cycle;Signal;HPM_P1;HPM_P2
2022/10/12 00:00:28;;;;;;;;;;;;;;;12.44;61.86;101448.41;4975653;28;20021;-62
2022/10/12 00:02:54;;;;;;;;;;;;;;;12.50;62.25;101449.19;4974452;28;19922;-62
2022/10/12 00:05:19;;;;;;;;;;;;;;;12.61;61.92;101454.34;4975575;28;19922;-63
2022/10/12 00:07:44;;;;;;;;;;;;;;;12.76;61.18;101447.97;4975377;28;19922;-62
2022/10/12 00:10:09;;;;;;;;;;;;;;;12.91;61.11;101453.03;4975133;28;19917;-61
2022/10/12 00:12:35;;;;;;;;;;;;;;;13.00;60.50;101462.59;4975921;28;19941;-62
2022/10/12 00:15:00;;;;;;;;;;;;;;;13.10;60.34;101463.34;4975766;28;19918;-62
2022/10/12 00:17:25;;;;;;;;;;;;;;;13.09;60.38;101459.84;4975635;28;19922;-63
2022/10/12 00:19:51;;;;;;;;;;;;;;;13.09;60.50;101459.84;4975804;28;20275;-62
2022/10/12 00:22:16;;;;;;;;;;;;;;;13.31;59.54;101465.66;4975123;28;20000;-62
2022/10/12 00:24:41;;;;;;;;;;;;;;;13.23;59.75;101470.19;4975584;28;19918;-62
2022/10/12 00:27:07;;;;;;;;;;;;;;;13.10;59.76;101464.19;4975738;28;20393;-61
2022/10/12 00:29:32;;;;;;;;;;;;;;;13.25;59.55;101469.28;4975086;28;19963;-62
2022/10/12 00:31:57;;;;;;;;;;;;;;;13.17;59.69;101470.28;4975053;28;19968;-62
2022/10/12 00:34:22;;;;;;;;;;;;;;;13.14;59.61;101470.31;4974582;28;19924;-62
2022/10/12 00:36:48;;;;;;;;;;;;;;;13.26;59.44;101478.06;4978268;28;19922;-61
2022/10/12 00:39:13;;;;;;;;;;;;;;;13.16;59.63;101476.41;4974488;28;20392;-62
2022/10/12 00:41:41;;;;;;;;;;;;;;;13.19;59.53;101481.66;4975103;28;20381;-62
2022/10/12 00:44:25;;;;;;;;;;;;;;;13.12;59.87;101480.00;4975008;28;19922;-62
2022/10/12 00:46:51;;;;;;;;;;;;;;;13.14;59.77;101480.88;4970829;28;19917;-62
2022/10/12 00:49:19;;;;;;;;;;;;;;;13.19;59.52;101474.63;4979805;28;19918;-62
2022/10/12 00:51:47;;;;;;;;;;;;;;;13.22;59.64;101474.56;4974631;28;19954;-62
2022/10/12 00:54:16;;;;;;;;;;;;;;;13.32;59.37;101475.31;4974407;28;19918;-63
2022/10/12 00:56:43;;;;;;;;;;;;;;;13.34;59.30;101478.81;4974623;28;20370;-63
2022/10/12 00:59:11;;;;;;;;;;;;;;;13.31;59.30;101473.59;4974976;28;19917;-63
2022/10/12 01:01:37;;;;;;;;;;;;;;;13.33;59.69;101479.72;4974735;28;19961;-62
2022/10/12 01:04:02;;;;;;;;;;;;;;;13.46;59.48;101478.63;4975506;28;20359;-62
2022/10/12 01:06:29;;;;;;;;;;;;;;;13.52;58.83;101478.53;4974973;28;20002;-63
2022/10/12 01:08:55;;;;;;;;;;;;;;;13.51;58.92;101474.13;4973705;28;19914;-63
2022/10/12 01:11:20;;;;;;;;;;;;;;;13.41;59.12;101483.13;4973292;28;20285;-63
2022/10/12 01:13:46;;;;;;;;;;;;;;;13.20;59.76;101481.63;4973674;28;19930;-63
2022/10/12 01:16:18;;;;;;;;;;;;;;;13.23;59.74;101484.25;4973352;28;19962;-62
2022/10/12 01:19:02;;;;;;;;;;;;;;;13.29;59.68;101492.09;4974822;28;19941;-63
2022/10/12 01:21:27;;;;;;;;;;;;;;;13.30;59.65;101487.69;4972789;28;20362;-62
2022/10/12 01:24:04;;;;;;;;;;;;;;;13.42;59.50;101478.72;4973907;28;19929;-61
2022/10/12 01:26:46;;;;;;;;;;;;;;;13.33;59.52;101481.50;4973769;28;19922;-63
2022/10/12 01:29:18;;;;;;;;;;;;;;;13.38;59.34;101485.81;4974269;28;19918;-61
2022/10/12 01:31:49;;;;;;;;;;;;;;;13.35;59.51;101483.19;4972639;28;19922;-62
2022/10/12 01:34:17;;;;;;;;;;;;;;;13.35;59.63;101480.56;4973940;28;19918;-62
2022/10/12 01:36:45;;;;;;;;;;;;;;;13.37;59.53;101483.19;4974247;28;19956;-61
2022/10/12 01:39:10;;;;;;;;;;;;;;;13.32;60.09;101491.16;4972981;28;19979;-61
2022/10/12 01:41:38;;;;;;;;;;;;;;;13.37;59.70;101484.06;4972257;28;20037;-62
2022/10/12 01:44:04;;;;;;;;;;;;;;;13.48;59.14;101487.38;4972798;28;20374;-62
2022/10/12 01:46:29;;;;;;;;;;;;;;;13.17;60.24;101486.09;4973098;28;20017;-62
2022/10/12 01:48:59;;;;;;;;;;;;;;;13.22;60.16;101485.13;4974193;28;19918;-62
2022/10/12 01:51:30;;;;;;;;;;;;;;;13.11;60.57;101489.69;4973461;28;20297;-62
2022/10/12 01:54:16;;;;;;;;;;;;;;;13.15;60.62;101487.88;4974352;28;20009;-62
2022/10/12 01:57:01;;;;;;;;;;;;;;;13.34;60.21;101478.81;4962789;28;19918;-62
2022/10/12 01:59:26;;;;;;;;;;;;;;;13.35;60.11;101484.97;4972588;28;19944;-62
2022/10/12 02:02:02;;;;;;;;;;;;;;;13.37;60.37;101486.72;4977375;28;19964;-62
2022/10/12 02:04:38;;;;;;;;;;;;;;;13.33;60.43;101485.00;4976593;28;19965;-61
2022/10/12 02:07:07;;;;;;;;;;;;;;;13.36;60.26;101490.22;4976137;28;19925;-62
2022/10/12 02:09:33;;;;;;;;;;;;;;;13.41;60.21;101483.13;4977771;28;20452;-63
2022/10/12 02:12:00;;;;;;;;;;;;;;;13.22;60.91;101478.97;4977723;28;19921;-62
2022/10/12 02:14:29;;;;;;;;;;;;;;;13.33;60.77;101485.00;4977440;28;19918;-63
2022/10/12 02:16:57;;;;;;;;;;;;;;;13.49;60.25;101470.66;4977260;28;19966;-63
2022/10/12 02:19:27;;;;;;;;;;;;;;;13.54;60.16;101467.94;4976828;28;19926;-62
2022/10/12 02:21:54;;;;;;;;;;;;;;;13.76;59.76;101465.78;4977372;28;19918;-63
2022/10/12 02:24:20;;;;;;;;;;;;;;;13.82;59.29;101460.41;4977554;28;19930;-63
2022/10/12 02:26:47;;;;;;;;;;;;;;;13.91;58.83;101460.25;4977468;28;19965;-61
2022/10/12 02:29:14;;;;;;;;;;;;;;;13.78;59.20;101459.59;5007407;28;20004;-62
2022/10/12 02:32:02;;;;;;;;;;;;;;;13.77;59.34;101467.56;4977285;28;20289;-63
2022/10/12 02:34:29;;;;;;;;;;;;;;;13.65;60.41;101463.34;4975829;28;19922;-63
2022/10/12 02:36:55;;;;;;;;;;;;;;;13.56;60.20;101458.22;4977446;28;19925;-62
2022/10/12 02:39:24;;;;;;;;;;;;;;;13.69;59.89;101464.19;4976659;28;19918;-62
2022/10/12 02:41:52;;;;;;;;;;;;;;;13.62;59.94;101466.03;4976391;28;19972;-62
2022/10/12 02:44:26;;;;;;;;;;;;;;;13.59;59.91;101473.16;4975815;28;19925;-61
2022/10/12 02:46:53;;;;;;;;;;;;;;;13.60;60.22;101469.59;4976629;28;19918;-62
2022/10/12 02:49:20;;;;;;;;;;;;;;;13.54;60.37;101467.94;4976413;28;19926;-62
2022/10/12 02:51:46;;;;;;;;;;;;;;;13.61;59.73;101466.94;4976366;28;19954;-62
2022/10/12 02:54:11;;;;;;;;;;;;;;;13.50;60.08;101468.91;4976644;28;20338;-62
2022/10/12 02:56:44;;;;;;;;;;;;;;;13.33;60.41;101468.31;4970542;28;19925;-61
2022/10/12 02:59:09;;;;;;;;;;;;;;;13.20;60.79;101473.72;4976372;28;19933;-62
2022/10/12 03:01:34;;;;;;;;;;;;;;;13.19;60.77;101464.06;4976878;28;19922;-63
2022/10/12 03:03:59;;;;;;;;;;;;;;;13.15;60.79;101472.03;4976228;28;20673;-62
2022/10/12 03:06:26;;;;;;;;;;;;;;;13.01;61.13;101470.50;4975282;28;19922;-63
2022/10/12 03:08:52;;;;;;;;;;;;;;;12.70;62.70;101472.66;4975971;28;19921;-63
2022/10/12 03:11:17;;;;;;;;;;;;;;;12.72;61.95;101472.63;4975981;28;19922;-62
2022/10/12 03:13:42;;;;;;;;;;;;;;;12.64;62.43;101475.38;4975240;28;20370;-62
2022/10/12 03:16:08;;;;;;;;;;;;;;;12.54;62.58;101472.00;5007981;28;19925;-62
2022/10/12 03:18:34;;;;;;;;;;;;;;;12.42;63.32;101474.78;4975579;28;19925;-62
2022/10/12 03:20:59;;;;;;;;;;;;;;;12.54;62.77;101474.63;4975286;28;19929;-63
2022/10/12 03:23:25;;;;;;;;;;;;;;;12.72;62.26;101464.72;4975612;28;19925;-62
2022/10/12 03:25:50;;;;;;;;;;;;;;;12.82;61.97;101476.91;4976439;28;20369;-62
2022/10/12 03:28:16;;;;;;;;;;;;;;;12.74;62.02;101471.75;4976520;28;19922;-60
2022/10/12 03:30:41;;;;;;;;;;;;;;;12.94;61.73;101481.16;4975159;28;19918;-61
2022/10/12 03:33:07;;;;;;;;;;;;;;;13.06;61.25;101473.94;4976185;28;20342;-62
2022/10/12 03:35:32;;;;;;;;;;;;;;;13.19;61.00;101477.25;4975231;28;20312;-61
2022/10/12 03:37:57;;;;;;;;;;;;;;;13.33;60.76;101484.13;4974592;28;19917;-60
2022/10/12 03:40:22;;;;;;;;;;;;;;;13.36;60.71;101479.66;4974162;28;19929;-62
2022/10/12 03:42:48;;;;;;;;;;;;;;;13.44;60.48;101480.41;4976674;28;19918;-63
2022/10/12 03:45:13;;;;;;;;;;;;;;;13.33;60.43;101474.44;4972481;28;20340;-62
2022/10/12 03:47:38;;;;;;;;;;;;;;;13.22;61.01;101486.91;4976280;28;20378;-63
2022/10/12 03:50:04;;;;;;;;;;;;;;;13.22;60.85;101473.69;4975515;28;19914;-63
2022/10/12 03:52:30;;;;;;;;;;;;;;;12.91;61.70;101473.28;4975536;28;19926;-62
2022/10/12 03:54:55;;;;;;;;;;;;;;;13.03;61.57;101488.94;4975632;28;19929;-62
2022/10/12 03:57:21;;;;;;;;;;;;;;;12.99;61.86;101482.81;4974528;28;19930;-62
2022/10/12 03:59:46;;;;;;;;;;;;;;;13.16;61.67;101474.66;4975928;28;19921;-62
2022/10/12 04:02:11;;;;;;;;;;;;;;;13.22;61.28;101486.91;4975783;28;19926;-62
2022/10/12 04:04:37;;;;;;;;;;;;;;;13.17;61.77;101496.66;4975415;28;19922;-63
2022/10/12 04:07:02;;;;;;;;;;;;;;;13.09;61.82;101494.13;4974875;28;19985;-62
2022/10/12 04:09:27;;;;;;;;;;;;;;;13.10;61.95;101495.00;4975249;28;20374;-60
2022/10/12 04:11:53;;;;;;;;;;;;;;;13.24;61.42;101498.31;4974004;28;19922;-62
2022/10/12 04:14:18;;;;;;;;;;;;;;;13.10;61.85;101514.34;4974685;28;19922;-62
2022/10/12 04:16:43;;;;;;;;;;;;;;;12.96;62.13;101514.50;4972481;28;19922;-63
2022/10/12 04:19:12;;;;;;;;;;;;;;;12.97;62.40;101512.78;4976870;28;19951;-62
2022/10/12 04:21:37;;;;;;;;;;;;;;;12.94;62.44;101518.94;4980561;28;19940;-62
2022/10/12 04:24:03;;;;;;;;;;;;;;;12.98;62.28;101518.00;4975003;28;20433;-62
2022/10/12 04:26:28;;;;;;;;;;;;;;;13.04;62.21;101523.19;4973426;28;19990;-62
2022/10/12 04:28:53;;;;;;;;;;;;;;;13.08;62.09;101524.03;4975819;28;19981;-62
2022/10/12 04:31:19;;;;;;;;;;;;;;;13.06;62.25;101528.47;4981104;28;20384;-61
2022/10/12 04:33:44;;;;;;;;;;;;;;;12.99;62.52;101530.31;4976326;28;19961;-63
2022/10/12 04:36:09;;;;;;;;;;;;;;;13.20;62.52;101534.41;4971860;28;19918;-61
2022/10/12 04:38:35;;;;;;;;;;;;;;;13.29;61.81;101530.81;4974802;28;19972;-61
2022/10/12 04:41:00;;;;;;;;;;;;;;;13.15;62.06;101528.34;4973615;28;19964;-62
2022/10/12 04:43:26;;;;;;;;;;;;;;;13.33;61.76;101542.22;4974413;28;20366;-62
2022/10/12 04:45:55;;;;;;;;;;;;;;;13.23;62.14;101538.81;4972113;28;20358;-62
2022/10/12 04:48:21;;;;;;;;;;;;;;;13.11;62.72;101545.09;4973842;28;19986;-61
2022/10/12 04:50:47;;;;;;;;;;;;;;;13.06;62.93;101547.81;4975288;28;19934;-62
2022/10/12 04:53:12;;;;;;;;;;;;;;;12.88;63.77;101545.41;4974558;28;19928;-61
2022/10/12 04:55:37;;;;;;;;;;;;;;;12.68;64.83;101545.63;4973094;28;20306;-61
2022/10/12 04:58:03;;;;;;;;;;;;;;;12.81;64.55;101552.53;4973416;28;20370;-62
2022/10/12 05:00:28;;;;;;;;;;;;;;;12.92;64.16;101544.47;4973341;28;20286;-61
2022/10/12 05:02:53;;;;;;;;;;;;;;;13.11;63.64;101550.38;4970008;28;20409;-61
2022/10/12 05:05:18;;;;;;;;;;;;;;;13.20;63.23;101554.66;4972788;28;19926;-60
2022/10/12 05:07:44;;;;;;;;;;;;;;;13.03;64.12;101553.13;4973880;28;20009;-62
2022/10/12 05:10:09;;;;;;;;;;;;;;;13.17;63.67;101544.16;4971403;28;19918;-61
2022/10/12 05:12:34;;;;;;;;;;;;;;;13.26;63.67;101554.63;4970571;28;19922;-59
2022/10/12 05:15:00;;;;;;;;;;;;;;;13.53;62.74;101551.56;4973448;28;19952;-61
2022/10/12 05:17:25;;;;;;;;;;;;;;;13.49;63.17;101552.50;4972009;28;19918;-62
2022/10/12 05:19:50;;;;;;;;;;;;;;;13.53;62.71;101559.50;4972241;28;19949;-61
2022/10/12 05:22:15;;;;;;;;;;;;;;;13.36;63.55;101553.56;4972166;28;20024;-61
2022/10/12 05:24:41;;;;;;;;;;;;;;;13.32;63.80;101559.78;4972818;28;19980;-64
2022/10/12 05:27:06;;;;;;;;;;;;;;;13.34;63.55;101558.00;4973439;28;19929;-62
2022/10/12 05:29:31;;;;;;;;;;;;;;;13.34;63.86;101558.00;4972880;28;19926;-64
2022/10/12 05:31:57;;;;;;;;;;;;;;;13.47;64.47;101554.28;4973281;28;19914;-62
2022/10/12 05:34:22;;;;;;;;;;;;;;;13.38;63.87;101553.56;4973128;28;19917;-63
2022/10/12 05:36:47;;;;;;;;;;;;;;;13.57;65.37;101556.81;4977512;28;19922;-64
2022/10/12 05:39:13;;;;;;;;;;;;;;;13.70;63.82;101546.03;4986529;28;20061;-63
2022/10/12 05:41:38;;;;;;;;;;;;;;;13.71;63.05;101550.41;4976307;28;19918;-64
2022/10/12 05:44:03;;;;;;;;;;;;;;;13.73;62.98;101545.09;4973331;28;19918;-61
2022/10/12 05:46:28;;;;;;;;;;;;;;;13.85;62.73;101551.97;4977289;28;19929;-64
2022/10/12 05:48:54;;;;;;;;;;;;;;;13.82;63.12;101552.00;4977538;28;19924;-65
2022/10/12 05:51:19;;;;;;;;;;;;;;;13.96;62.69;101542.97;4978799;28;20287;-63
2022/10/12 05:53:44;;;;;;;;;;;;;;;14.08;62.23;101541.84;4978974;28;19922;-64
2022/10/12 05:56:10;;;;;;;;;;;;;;;14.22;61.84;101541.63;4978722;28;19945;-64
2022/10/12 05:58:35;;;;;;;;;;;;;;;14.24;62.17;101542.44;4978186;28;20376;-64
2022/10/12 06:01:06;;;;;;;;;;;;;;;14.32;61.68;101545.81;4976279;28;19986;-64
2022/10/12 06:03:31;;;;;;;;;;;;;;;14.33;61.81;101552.00;4978344;28;19918;-65
2022/10/12 06:05:56;;;;;;;;;;;;;;;14.17;62.26;101549.63;4978342;28;19925;-63
2022/10/12 06:08:22;;;;;;;;;;;;;;;13.91;63.12;101557.13;4977481;28;19926;-64
2022/10/12 06:10:49;;;;;;;;;;;;;;;13.87;63.13;101556.31;4978559;28;19918;-64
2022/10/12 06:13:16;;;;;;;;;;;;;;;13.91;63.44;101559.78;4976713;28;19965;-64
2022/10/12 06:15:43;;;;;;;;;;;;;;;13.89;63.83;101562.44;4977668;28;20278;-64
2022/10/12 06:18:08;;;;;;;;;;;;;;;14.10;63.61;101555.06;4976192;28;20329;-64
2022/10/12 06:20:34;;;;;;;;;;;;;;;14.01;63.43;101562.25;4975876;28;19929;-64
2022/10/12 06:22:59;;;;;;;;;;;;;;;14.22;63.06;101562.75;4978336;28;19930;-63
2022/10/12 06:25:24;;;;;;;;;;;;;;;14.20;62.94;101567.19;4977716;28;19930;-63
2022/10/12 06:27:50;;;;;;;;;;;;;;;14.33;62.90;101566.09;4977085;28;19954;-63
2022/10/12 06:30:15;;;;;;;;;;;;;;;14.50;62.78;101571.09;4986263;28;19921;-65
2022/10/12 06:32:41;;;;;;;;;;;;;;;14.63;61.97;101572.59;4997651;28;19917;-64
2022/10/12 06:35:06;;;;;;;;;;;;;;;14.73;62.29;101581.22;4990243;28;19918;-64
2022/10/12 06:37:31;;;;;;;;;;;;;;;14.79;61.18;101581.94;4978291;28;20273;-64
2022/10/12 06:39:57;;;;;;;;;;;;;;;14.86;61.28;101585.38;4976413;28;19918;-65
2022/10/12 06:42:22;;;;;;;;;;;;;;;14.90;60.99;101586.19;4976605;28;19976;-64
2022/10/12 06:44:48;;;;;;;;;;;;;;;15.08;60.58;101583.16;4977086;28;20045;-64
2022/10/12 06:47:13;;;;;;;;;;;;;;;15.12;60.18;101579.53;4976758;28;19922;-63
2022/10/12 06:49:38;;;;;;;;;;;;;;;15.15;60.53;101581.22;4976711;28;19922;-63
2022/10/12 06:52:04;;;;;;;;;;;;;;;15.20;59.91;101584.63;4975679;28;20294;-63
2022/10/12 06:54:29;;;;;;;;;;;;;;;15.22;60.03;101585.50;4976767;28;19934;-62
2022/10/12 06:56:54;;;;;;;;;;;;;;;15.18;59.57;101582.03;4976199;28;20416;-63
2022/10/12 06:59:21;;;;;;;;;;;;;;;15.02;60.01;101581.50;4976388;28;19926;-62
2022/10/12 07:01:47;;;;;;;;;;;;;;;14.79;60.60;101583.72;4975769;28;19929;-64
2022/10/12 07:04:12;;;;;;;;;;;;;;;14.72;61.03;101579.47;4977090;28;19922;-64
2022/10/12 07:06:37;;;;;;;;;;;;;;;14.64;61.13;101581.38;4976528;28;19945;-63
2022/10/12 07:09:03;;;;;;;;;;;;;;;14.63;61.17;101587.59;4975479;28;20298;-63
2022/10/12 07:11:28;;;;;;;;;;;;;;;14.60;61.15;101587.63;4976591;28;19921;-64
2022/10/12 07:13:53;;;;;;;;;;;;;;;14.53;61.33;101587.78;4976531;28;19922;-64
2022/10/12 07:16:18;;;;;;;;;;;;;;;14.70;60.96;101586.56;4977004;28;19929;-61
2022/10/12 07:18:44;;;;;;;;;;;;;;;14.87;60.94;101587.09;4976403;28;19922;-64
2022/10/12 07:21:09;;;;;;;;;;;;;;;14.86;60.61;101587.13;4976499;28;19965;-63
2022/10/12 07:23:36;;;;;;;;;;;;;;;15.00;61.21;101593.91;4975545;28;19922;-65
2022/10/12 07:26:02;;;;;;;;;;;;;;;15.01;60.97;101589.47;4975207;28;20075;-65
2022/10/12 07:28:28;;;;;;;;;;;;;;;15.12;60.84;101584.84;4971526;28;20466;-64
2022/10/12 07:30:53;;;;;;;;;;;;;;;15.20;61.24;101590.84;4975899;28;19929;-64
2022/10/12 07:33:18;;;;;;;;;;;;;;;15.30;61.09;101588.84;4973131;28;20013;-63
2022/10/12 07:35:51;;;;;;;;;;;;;;;15.29;61.05;101587.09;4975080;28;20346;-64
2022/10/12 07:38:17;;;;;;;;;;;;;;;15.16;62.52;101590.91;4976213;28;19941;-65
2022/10/12 07:40:42;;;;;;;;;;;;;;;15.33;62.15;101591.44;4975999;28;20449;-65
2022/10/12 07:43:07;;;;;;;;;;;;;;;15.03;62.46;101593.81;4976071;28;19922;-63
2022/10/12 07:45:32;;;;;;;;;;;;;;;15.17;62.11;101584.72;4975786;28;19937;-64
2022/10/12 07:47:58;;;;;;;;;;;;;;;15.53;61.40;101585.69;4975950;28;19922;-63
2022/10/12 07:50:24;;;;;;;;;;;;;;;15.83;61.05;101593.84;4976195;28;19921;-64
2022/10/12 07:52:49;;;;;;;;;;;;;;;15.68;60.73;101584.50;4975695;28;19965;-64
2022/10/12 07:55:15;;;;;;;;;;;;;;;15.88;61.45;101595.50;4975669;28;19980;-64
2022/10/12 07:57:40;;;;;;;;;;;;;;;15.66;60.48;101583.66;4974834;28;19922;-64
2022/10/12 08:00:07;;;;;;;;;;;;;;;15.54;61.19;101590.06;4976093;28;19987;-64
2022/10/12 08:02:32;;;;;;;;;;;;;;;15.61;60.66;101591.69;4975369;28;19921;-64
2022/10/12 08:04:57;;;;;;;;;;;;;;;15.69;61.17;101586.22;4975529;28;20306;-63
2022/10/12 08:07:22;;;;;;;;;;;;;;;15.47;60.94;101591.09;4975693;28;19917;-64
2022/10/12 08:09:48;;;;;;;;;;;;;;;15.26;61.54;101595.13;4975184;28;19964;-64
2022/10/12 08:12:14;;;;;;;;;;;;;;;15.36;61.86;101590.47;4975728;28;20297;-64
2022/10/12 08:14:39;;;;;;;;;;;;;;;15.46;61.46;101592.03;4975045;28;20357;-64
2022/10/12 08:17:05;;;;;;;;;;;;;;;15.62;61.37;101587.25;4975451;28;19922;-64
2022/10/12 08:19:30;;;;;;;;;;;;;;;15.75;61.15;101583.41;4973774;28;19929;-63
2022/10/12 08:21:55;;;;;;;;;;;;;;;15.60;61.02;101589.94;4975027;28;19981;-64
2022/10/12 08:24:21;;;;;;;;;;;;;;;15.73;60.64;101588.78;5006945;28;19940;-64
2022/10/12 08:26:46;;;;;;;;;;;;;;;15.88;59.89;101597.25;4974371;28;19922;-64
2022/10/12 08:29:11;;;;;;;;;;;;;;;15.75;60.43;101592.22;4975533;28;19918;-65
2022/10/12 08:31:38;;;;;;;;;;;;;;;15.81;60.05;101598.31;4973748;28;19922;-63
2022/10/12 08:34:03;;;;;;;;;;;;;;;15.73;60.03;101596.72;4975085;28;19953;-64
2022/10/12 08:36:29;;;;;;;;;;;;;;;15.66;59.95;101599.53;4974969;28;19974;-65
2022/10/12 08:38:54;;;;;;;;;;;;;;;15.86;59.61;101591.97;4974963;28;19914;-65
2022/10/12 08:41:38;;;;;;;;;;;;;;;16.04;58.57;101603.03;4974556;28;20377;-65
2022/10/12 08:44:15;;;;;;;;;;;;;;;16.01;59.44;101601.34;4975486;28;19910;-64
2022/10/12 08:46:41;;;;;;;;;;;;;;;16.38;58.61;101601.28;4973646;28;19922;-64
2022/10/12 08:49:12;;;;;;;;;;;;;;;16.16;57.94;101610.72;4975079;28;19929;-63
2022/10/12 08:51:43;;;;;;;;;;;;;;;16.07;58.93;101610.91;4970356;28;19949;-63
2022/10/12 08:54:16;;;;;;;;;;;;;;;16.25;58.48;101603.38;4972269;28;19917;-62
2022/10/12 08:56:42;;;;;;;;;;;;;;;16.42;57.64;101602.94;4974600;28;19933;-64
2022/10/12 08:59:15;;;;;;;;;;;;;;;16.43;57.41;101601.13;4974862;28;20390;-65
2022/10/12 09:02:05;;;;;;;;;;;;;;;16.58;56.66;101613.13;4973227;28;20012;-64
2022/10/12 09:04:46;;;;;;;;;;;;;;;16.55;57.34;101608.78;4974502;28;19945;-64
2022/10/12 09:07:25;;;;;;;;;;;;;;;16.74;56.85;101603.88;4973736;28;19918;-63
2022/10/12 09:10:01;;;;;;;;;;;;;;;16.85;56.71;101607.09;4974056;28;19922;-64
2022/10/12 09:12:33;;;;;;;;;;;;;;;16.91;56.84;101606.03;4974347;28;19954;-64
2022/10/12 09:15:01;;;;;;;;;;;;;;;17.14;56.68;101602.72;4968380;28;19988;-65
2022/10/12 09:17:37;;;;;;;;;;;;;;;17.14;55.75;101600.06;4974136;28;19933;-64
2022/10/12 09:20:15;;;;;;;;;;;;;;;17.15;55.25;101599.16;4969295;28;19961;-64
2022/10/12 09:22:42;;;;;;;;;;;;;;;17.40;55.21;101604.63;4974650;28;19925;-64
2022/10/12 09:25:10;;;;;;;;;;;;;;;17.42;54.39;101602.78;4973293;28;20278;-64
2022/10/12 09:27:36;;;;;;;;;;;;;;;17.22;54.70;101596.28;4974050;28;19924;-64
2022/10/12 09:30:02;;;;;;;;;;;;;;;17.30;55.02;101601.34;4974361;28;19996;-64
2022/10/12 09:32:33;;;;;;;;;;;;;;;17.77;54.99;101596.38;4974238;28;19968;-64
2022/10/12 09:34:59;;;;;;;;;;;;;;;17.82;54.16;101597.09;4968318;28;19925;-64
2022/10/12 09:37:26;;;;;;;;;;;;;;;17.67;53.59;101602.88;4973903;28;19922;-65
2022/10/12 09:39:52;;;;;;;;;;;;;;;17.94;52.90;101601.13;4974065;28;19918;-65
2022/10/12 09:42:17;;;;;;;;;;;;;;;17.82;53.71;101604.19;4974126;28;19984;-66
2022/10/12 09:44:45;;;;;;;;;;;;;;;18.08;54.58;101598.91;4973553;28;19921;-65
2022/10/12 09:47:20;;;;;;;;;;;;;;;18.00;52.20;101611.59;4974173;28;19997;-65
2022/10/12 09:49:47;;;;;;;;;;;;;;;17.83;52.73;101614.78;4974382;28;20294;-64
2022/10/12 09:52:14;;;;;;;;;;;;;;;17.59;52.08;101618.19;4974182;28;19918;-65
2022/10/12 09:54:44;;;;;;;;;;;;;;;17.43;52.14;101620.44;4973589;28;20412;-65
2022/10/12 09:57:16;;;;;;;;;;;;;;;17.86;51.76;101613.81;4974026;28;19964;-64
2022/10/12 09:59:43;;;;;;;;;;;;;;;18.03;51.11;101611.47;4974502;28;19926;-64
2022/10/12 10:02:08;;;;;;;;;;;;;;;18.44;50.96;101602.09;4974688;28;19960;-64
2022/10/12 10:04:34;;;;;;;;;;;;;;;18.38;51.06;101607.63;4974848;28;20004;-64
2022/10/12 10:07:19;;;;;;;;;;;;;;;18.50;49.95;101610.78;4974585;28;19925;-65
2022/10/12 10:09:45;;;;;;;;;;;;;;;18.29;50.02;101607.94;4974727;28;19937;-65
2022/10/12 10:12:31;;;;;;;;;;;;;;;18.21;50.31;101616.19;4974267;28;20008;-65
2022/10/12 10:14:57;;;;;;;;;;;;;;;18.10;50.26;101613.00;4972943;28;20290;-65
2022/10/12 10:17:27;;;;;;;;;;;;;;;18.10;51.02;101605.03;4973831;28;20400;-65
2022/10/12 10:19:54;;;;;;;;;;;;;;;18.29;50.36;101607.94;4973825;28;20016;-64
2022/10/12 10:22:19;;;;;;;;;;;;;;;17.94;50.58;101615.31;4976132;28;19933;-64
2022/10/12 10:25:05;;;;;;;;;;;;;;;18.05;50.31;101606.13;4977623;28;19930;-65
2022/10/12 10:27:35;;;;;;;;;;;;;;;18.08;50.31;101606.03;4975510;28;20520;-63
2022/10/12 10:30:08;;;;;;;;;;;;;;;18.23;49.42;101608.13;4977309;28;19928;-63
2022/10/12 10:32:33;;;;;;;;;;;;;;;18.56;49.38;101606.13;4967002;28;19922;-62
2022/10/12 10:35:08;;;;;;;;;;;;;;;18.54;48.66;101602.63;4977377;28;19949;-63
2022/10/12 10:37:34;;;;;;;;;;;;;;;19.04;48.00;101599.97;4976946;28;19918;-64
2022/10/12 10:39:59;;;;;;;;;;;;;;;19.51;46.09;101607.94;4977208;28;19922;-63
2022/10/12 10:42:27;;;;;;;;;;;;;;;19.44;46.08;101607.28;4977155;28;19922;-64
2022/10/12 10:45:12;;;;;;;;;;;;;;;18.92;47.05;101603.94;4976748;28;19922;-64
2022/10/12 10:47:44;;;;;;;;;;;;;;;18.68;47.77;101604.81;4977190;28;19918;-64
2022/10/12 10:50:24;;;;;;;;;;;;;;;18.48;48.45;101597.53;4971618;28;19918;-64
2022/10/12 10:52:54;;;;;;;;;;;;;;;18.36;48.84;101596.16;4976311;28;19960;-64
2022/10/12 10:55:20;;;;;;;;;;;;;;;18.35;49.16;101599.75;4976756;28;19980;-64
2022/10/12 10:57:58;;;;;;;;;;;;;;;18.08;50.12;101609.53;4976278;28;19922;-63
2022/10/12 11:00:23;;;;;;;;;;;;;;;18.07;50.54;101605.13;4977383;28;19925;-65
2022/10/12 11:02:51;;;;;;;;;;;;;;;18.18;49.93;101602.97;4976299;28;20285;-64
2022/10/12 11:05:28;;;;;;;;;;;;;;;18.11;49.44;101596.16;4975856;28;19940;-65
2022/10/12 11:07:57;;;;;;;;;;;;;;;18.22;49.70;101609.06;4977339;28;19918;-64
2022/10/12 11:10:23;;;;;;;;;;;;;;;18.08;50.21;101598.91;4996296;28;20432;-63
2022/10/12 11:12:51;;;;;;;;;;;;;;;18.29;49.92;101589.31;4976143;28;19918;-64
2022/10/12 11:15:22;;;;;;;;;;;;;;;18.21;50.49;101588.72;4976309;28;19964;-64
2022/10/12 11:17:49;;;;;;;;;;;;;;;18.13;50.75;101601.41;4966387;28;19951;-64
2022/10/12 11:20:24;;;;;;;;;;;;;;;18.25;50.66;101585.03;4976509;28;19924;-63
2022/10/12 11:22:54;;;;;;;;;;;;;;;18.35;51.63;101581.13;4976184;28;19918;-64
2022/10/12 11:25:24;;;;;;;;;;;;;;;18.59;49.68;101590.03;4975329;28;19964;-62
2022/10/12 11:27:50;;;;;;;;;;;;;;;19.03;49.38;101584.00;4975446;28;19918;-63
2022/10/12 11:30:20;;;;;;;;;;;;;;;18.81;48.44;101589.28;4975634;28;19929;-63
2022/10/12 11:32:47;;;;;;;;;;;;;;;19.14;47.99;101587.16;4975225;28;19965;-63
2022/10/12 11:35:14;;;;;;;;;;;;;;;19.44;47.32;101588.63;4976549;28;20365;-64
2022/10/12 11:37:46;;;;;;;;;;;;;;;19.49;47.43;101579.59;4976990;28;20013;-64
2022/10/12 11:40:24;;;;;;;;;;;;;;;19.30;45.91;101582.09;4977698;28;19957;-65
2022/10/12 11:42:50;;;;;;;;;;;;;;;19.26;47.35;101580.47;4977019;28;19937;-64
2022/10/12 11:45:28;;;;;;;;;;;;;;;19.10;46.11;101583.72;4975123;28;19922;-64
2022/10/12 11:48:01;;;;;;;;;;;;;;;18.95;46.49;101577.22;4976511;28;19921;-64
2022/10/12 11:50:41;;;;;;;;;;;;;;;18.94;46.84;101575.44;4977730;28;19918;-64
2022/10/12 11:53:11;;;;;;;;;;;;;;;18.75;47.77;101578.84;4977400;28;19918;-64
2022/10/12 11:55:42;;;;;;;;;;;;;;;18.78;48.21;101589.41;4976765;28;19921;-64
2022/10/12 11:58:29;;;;;;;;;;;;;;;18.74;47.00;101585.97;4976572;28;19914;-64
2022/10/12 12:01:13;;;;;;;;;;;;;;;18.88;46.67;101588.16;4976565;28;19921;-64
2022/10/12 12:03:42;;;;;;;;;;;;;;;18.94;46.33;101586.09;4976568;28;19926;-64
2022/10/12 12:06:26;;;;;;;;;;;;;;;18.79;45.61;101586.69;4976864;28;19921;-65
2022/10/12 12:08:54;;;;;;;;;;;;;;;18.93;45.54;101588.84;4976704;28;20417;-64
2022/10/12 12:11:21;;;;;;;;;;;;;;;19.16;45.75;101583.50;4976414;28;20396;-64
2022/10/12 12:13:47;;;;;;;;;;;;;;;19.16;44.80;101594.16;4976301;28;20313;-64
2022/10/12 12:16:12;;;;;;;;;;;;;;;19.45;45.44;101595.69;4976347;28;19914;-64
2022/10/12 12:18:56;;;;;;;;;;;;;;;19.48;45.08;101591.19;4975697;28;19914;-64
2022/10/12 12:21:21;;;;;;;;;;;;;;;19.41;44.60;101586.06;4976079;28;19969;-64
2022/10/12 12:23:52;;;;;;;;;;;;;;;19.46;44.49;101588.56;4976106;28;19922;-64
2022/10/12 12:26:18;;;;;;;;;;;;;;;19.39;44.68;101589.75;4975050;28;19925;-64
2022/10/12 12:28:47;;;;;;;;;;;;;;;19.57;44.94;101593.47;4975020;28;19957;-63
2022/10/12 12:31:12;;;;;;;;;;;;;;;19.54;45.27;101585.59;4968713;28;19922;-64
2022/10/12 12:33:41;;;;;;;;;;;;;;;19.38;44.68;101588.00;4974398;28;20005;-64
2022/10/12 12:36:08;;;;;;;;;;;;;;;19.65;44.52;101578.06;4975241;28;19930;-64
2022/10/12 12:38:33;;;;;;;;;;;;;;;19.71;44.48;101591.16;4963480;28;19918;-64